Main page
Satellite images Climate Cyclones Lightning AirportsFAQ Languages Contact Newsletter About
Weather : Europe Africa North America South America Asia Australia-Oceania Others

vientiane-la, Vientiane, Wattay International Airport

48940

latitude: , longitude: Laos, elevation: 17-57N m


METAR: VLVT 212300Z 30002KT 5000 BR BKN040 BKN083 26/26 Q1003 NOSIG